createdAt,value
2022-09-22T03:17:09.005Z,8.20
2022-09-22T03:19:37.112Z,8.20
2022-09-22T03:22:05.487Z,8.20
2022-09-22T03:24:33.579Z,8.20
2022-09-22T03:27:01.650Z,8.20
2022-09-22T03:29:29.713Z,8.20
2022-09-22T03:31:57.762Z,8.20
2022-09-22T03:34:27.285Z,8.20
2022-09-22T03:36:55.350Z,8.20
2022-09-22T03:39:23.446Z,8.10
2022-09-22T03:41:51.495Z,8.20
2022-09-22T03:44:19.550Z,8.20
2022-09-22T03:46:47.621Z,8.20
2022-09-22T03:49:15.696Z,8.20
2022-09-22T03:51:45.226Z,8.20
2022-09-22T03:54:13.652Z,8.20
2022-09-22T03:56:41.737Z,8.30
2022-09-22T03:59:10.438Z,8.30
2022-09-22T04:01:39.169Z,8.30
2022-09-22T04:04:07.547Z,8.30
2022-09-22T04:06:36.759Z,8.20
2022-09-22T04:09:06.476Z,8.30
2022-09-22T04:11:34.642Z,8.30
2022-09-22T04:14:03.974Z,8.30
2022-09-22T04:16:32.197Z,8.30
2022-09-22T04:19:00.777Z,8.30
2022-09-22T04:21:28.873Z,8.30
2022-09-22T04:23:57.148Z,8.30
2022-09-22T04:26:26.624Z,8.50
2022-09-22T04:28:54.656Z,8.40
2022-09-22T04:31:23.110Z,8.40
2022-09-22T04:33:51.134Z,8.40
2022-09-22T04:36:19.229Z,8.40
2022-09-22T04:38:47.298Z,8.40
2022-09-22T04:41:15.443Z,8.40
2022-09-22T04:43:45.016Z,8.50
2022-09-22T04:46:13.207Z,8.50
2022-09-22T04:48:41.346Z,8.40
2022-09-22T04:51:09.498Z,8.60
2022-09-22T04:53:37.638Z,8.50
2022-09-22T04:56:06.079Z,8.60
2022-09-22T04:58:34.147Z,8.60
2022-09-22T05:01:08.045Z,8.60
2022-09-22T05:03:38.253Z,8.60
2022-09-22T05:06:07.251Z,8.60
2022-09-22T05:08:36.003Z,8.60
2022-09-22T05:11:06.715Z,8.70
2022-09-22T05:13:35.378Z,8.70
2022-09-22T05:16:05.382Z,8.70
2022-09-22T05:18:34.746Z,8.70
2022-09-22T05:21:03.220Z,8.90
2022-09-22T05:23:32.261Z,8.70
2022-09-22T05:26:00.695Z,8.80
2022-09-22T05:28:28.742Z,8.80
2022-09-22T05:30:56.887Z,8.80
2022-09-22T05:33:26.208Z,8.90
2022-09-22T05:35:55.778Z,8.80
2022-09-22T05:38:23.844Z,8.90
2022-09-22T05:40:51.923Z,8.90
2022-09-22T05:43:20.094Z,9.00
2022-09-22T05:45:48.267Z,9.00
2022-09-22T05:48:16.436Z,9.00
2022-09-22T05:50:45.235Z,9.00
2022-09-22T05:53:15.217Z,9.00
2022-09-22T05:55:43.773Z,9.10
2022-09-22T05:58:13.025Z,9.10
2022-09-22T06:00:42.152Z,9.10
2022-09-22T06:03:10.660Z,9.20
2022-09-22T06:05:39.712Z,9.20
2022-09-22T06:08:08.883Z,9.30
2022-09-22T06:10:39.910Z,9.30
2022-09-22T06:13:10.344Z,9.30
2022-09-22T06:15:40.378Z,9.30
2022-09-22T06:18:14.911Z,9.40
2022-09-22T06:20:43.856Z,9.40
2022-09-22T06:23:12.716Z,9.60
2022-09-22T06:25:42.469Z,9.60
2022-09-22T06:28:14.545Z,9.60
2022-09-22T06:30:43.349Z,9.60
2022-09-22T06:33:12.635Z,9.60
2022-09-22T06:35:43.121Z,9.60
2022-09-22T06:38:14.823Z,9.60
2022-09-22T06:40:45.063Z,9.70
2022-09-22T06:43:22.625Z,9.90
2022-09-22T06:45:52.297Z,9.90
2022-09-22T06:48:23.802Z,9.80
2022-09-22T06:50:53.584Z,9.90
2022-09-22T06:53:25.704Z,10.00
2022-09-22T06:55:56.641Z,10.10
2022-09-22T06:58:25.447Z,10.20
2022-09-22T07:00:53.915Z,10.20
2022-09-22T07:03:24.449Z,10.20
2022-09-22T07:05:57.518Z,10.30
2022-09-22T07:08:26.430Z,10.40
2022-09-22T07:10:58.285Z,10.50
2022-09-22T07:13:29.811Z,10.50
2022-09-22T07:16:01.362Z,10.60
2022-09-22T07:18:29.744Z,10.70
2022-09-22T07:21:03.121Z,10.70
2022-09-22T07:23:31.204Z,10.80
2022-09-22T07:26:01.014Z,11.00
2022-09-22T07:28:29.886Z,11.00
2022-09-22T07:30:58.406Z,11.00
2022-09-22T07:33:27.358Z,10.90
2022-09-22T07:36:05.065Z,11.00
2022-09-22T07:38:36.430Z,11.00
2022-09-22T07:41:08.452Z,11.10
2022-09-22T07:43:37.003Z,11.20
2022-09-22T07:46:05.471Z,11.20
2022-09-22T07:48:44.207Z,11.30
2022-09-22T07:51:16.802Z,11.40
2022-09-22T07:53:46.889Z,11.70
2022-09-22T07:56:18.067Z,11.70
2022-09-22T07:58:50.222Z,11.70
2022-09-22T08:01:19.220Z,11.90
2022-09-22T08:03:47.622Z,11.80
2022-09-22T08:06:18.496Z,12.00
2022-09-22T08:08:52.477Z,12.00
2022-09-22T08:11:24.431Z,12.00
2022-09-22T08:13:55.219Z,12.00
2022-09-22T08:16:23.949Z,12.10
2022-09-22T08:18:56.611Z,12.40
2022-09-22T08:21:24.766Z,12.50
2022-09-22T08:23:53.222Z,12.50
2022-09-22T08:26:23.237Z,12.50
2022-09-22T08:28:53.050Z,12.40
2022-09-22T08:31:22.214Z,12.60
2022-09-22T08:33:53.000Z,12.80
2022-09-22T08:36:21.664Z,12.90
2022-09-22T08:38:49.790Z,13.10
2022-09-22T08:41:26.557Z,13.40
2022-09-22T08:43:56.352Z,13.50
2022-09-22T08:46:29.206Z,13.60
2022-09-22T08:49:18.045Z,13.70
2022-09-22T08:51:53.800Z,13.60
2022-09-22T08:54:25.513Z,13.80
2022-09-22T08:57:14.720Z,13.60
2022-09-22T08:59:48.571Z,13.80
2022-09-22T09:02:40.175Z,14.00
2022-09-22T09:05:42.013Z,14.00
2022-09-22T09:08:29.207Z,14.00
2022-09-22T09:11:04.015Z,14.10
2022-09-22T09:13:44.973Z,14.00
2022-09-22T09:16:37.768Z,14.10
2022-09-22T09:19:14.059Z,14.20
2022-09-22T09:21:46.235Z,14.30
2022-09-22T09:27:15.742Z,14.90
2022-09-22T09:29:59.543Z,15.20
2022-09-22T09:32:34.635Z,15.10
2022-09-22T09:37:36.961Z,15.10
2022-09-22T09:40:08.468Z,14.90
2022-09-22T09:42:37.046Z,14.70
2022-09-22T09:45:08.122Z,14.60
2022-09-22T09:47:47.844Z,14.40
2022-09-22T09:50:17.252Z,14.20
2022-09-22T09:52:47.454Z,14.30
2022-09-22T09:55:26.681Z,14.30
2022-09-22T09:58:07.700Z,14.40
2022-09-22T10:00:56.073Z,14.40
2022-09-22T10:03:29.471Z,14.40
2022-09-22T10:06:00.684Z,14.60
2022-09-22T10:08:35.225Z,14.70
2022-09-22T10:11:05.032Z,14.90
2022-09-22T10:13:35.572Z,15.20
2022-09-22T10:16:22.015Z,15.40
2022-09-22T10:18:52.274Z,15.70
2022-09-22T10:21:21.887Z,15.90
2022-09-22T10:23:51.544Z,16.10
2022-09-22T10:26:23.044Z,15.90
2022-09-22T10:29:18.347Z,15.60
2022-09-22T10:32:12.587Z,15.20
2022-09-22T10:37:20.912Z,14.80
2022-09-22T10:39:51.137Z,14.80
2022-09-22T10:42:34.768Z,14.70
2022-09-22T10:45:07.122Z,14.70
2022-09-22T10:47:52.988Z,14.60
2022-09-22T10:50:42.633Z,14.80
2022-09-22T10:53:33.381Z,14.80
2022-09-22T10:56:09.984Z,14.80
2022-09-22T10:58:55.233Z,14.90
2022-09-22T11:01:37.094Z,15.00
2022-09-22T11:04:37.315Z,15.20
2022-09-22T11:07:42.576Z,15.60
2022-09-22T11:10:39.171Z,15.90
2022-09-22T11:13:17.615Z,16.10
2022-09-22T11:16:08.173Z,16.20
2022-09-22T11:18:52.297Z,16.50
2022-09-22T11:21:35.809Z,16.40
2022-09-22T11:24:17.431Z,16.20
2022-09-22T11:26:50.099Z,15.70
2022-09-22T11:30:11.057Z,15.50
2022-09-22T11:33:03.242Z,15.40
2022-09-22T11:36:01.288Z,15.40
2022-09-22T11:38:49.326Z,15.30
2022-09-22T11:41:29.922Z,15.20
2022-09-22T11:44:33.241Z,15.30
2022-09-22T11:47:31.372Z,15.20
2022-09-22T11:50:17.675Z,15.30
2022-09-22T11:53:14.248Z,15.20
2022-09-22T11:55:48.021Z,15.20
2022-09-22T11:58:20.637Z,15.00
2022-09-22T12:00:53.994Z,14.80
2022-09-22T12:03:27.743Z,14.70
2022-09-22T12:06:03.353Z,14.70
2022-09-22T12:08:37.122Z,14.60
2022-09-22T12:11:08.934Z,14.50
2022-09-22T12:13:42.447Z,14.50
2022-09-22T12:16:18.825Z,14.50
2022-09-22T12:18:53.491Z,14.40
2022-09-22T12:21:37.053Z,14.30
2022-09-22T12:24:09.351Z,14.20
2022-09-22T12:26:41.643Z,14.30
2022-09-22T12:29:23.651Z,14.20
2022-09-22T12:31:55.752Z,14.30
2022-09-22T12:34:26.877Z,14.30
2022-09-22T12:36:59.429Z,14.30
2022-09-22T12:39:31.018Z,14.30
2022-09-22T12:42:02.593Z,14.30
2022-09-22T12:44:34.541Z,14.20
2022-09-22T12:47:04.647Z,14.20
2022-09-22T12:49:32.981Z,14.20
2022-09-22T12:52:01.147Z,14.30
2022-09-22T12:54:39.666Z,14.20
2022-09-22T12:57:30.108Z,14.20
2022-09-22T13:00:08.230Z,14.20
2022-09-22T13:02:44.541Z,14.30
2022-09-22T13:05:35.551Z,14.40
2022-09-22T13:08:04.424Z,14.30
2022-09-22T13:10:43.443Z,14.40
2022-09-22T13:13:25.507Z,14.40
2022-09-22T13:15:59.496Z,14.40
2022-09-22T13:18:33.325Z,14.40
2022-09-22T13:21:03.124Z,14.50
2022-09-22T13:23:31.518Z,14.50
2022-09-22T13:26:13.209Z,14.60
2022-09-22T13:28:43.179Z,14.50
2022-09-22T13:31:15.017Z,14.50
2022-09-22T13:33:43.906Z,14.50
2022-09-22T13:36:16.267Z,14.60
2022-09-22T13:38:46.313Z,14.60
2022-09-22T13:41:19.003Z,14.50
2022-09-22T13:43:51.773Z,14.40
2022-09-22T13:46:25.250Z,14.30
2022-09-22T13:48:56.525Z,14.30
2022-09-22T13:51:26.139Z,14.20
2022-09-22T13:53:57.594Z,14.10
2022-09-22T13:56:27.175Z,14.00
2022-09-22T13:58:59.855Z,14.00
2022-09-22T14:01:30.304Z,14.00
2022-09-22T14:03:58.757Z,13.90
2022-09-22T14:06:29.633Z,13.90
2022-09-22T14:08:58.165Z,13.80
2022-09-22T14:11:29.594Z,13.70
2022-09-22T14:14:00.860Z,13.60
2022-09-22T14:16:34.693Z,13.50
2022-09-22T14:19:06.274Z,13.40
2022-09-22T14:21:41.347Z,13.30
2022-09-22T14:24:12.767Z,13.40
2022-09-22T14:26:45.641Z,13.50
2022-09-22T14:29:20.467Z,13.60
2022-09-22T14:31:52.683Z,13.70
2022-09-22T14:34:26.670Z,13.80
2022-09-22T14:36:56.264Z,13.90
2022-09-22T14:39:31.776Z,13.80
2022-09-22T14:42:09.038Z,13.70
2022-09-22T14:44:43.713Z,13.60
2022-09-22T14:47:24.108Z,13.50
2022-09-22T14:50:07.478Z,13.40
2022-09-22T14:52:38.778Z,13.50
2022-09-22T14:55:16.948Z,13.60
2022-09-22T14:57:48.597Z,13.50
2022-09-22T15:00:36.794Z,13.60
2022-09-22T15:03:16.576Z,13.60
2022-09-22T15:05:45.483Z,13.70
2022-09-22T15:08:27.797Z,13.60
2022-09-22T15:10:57.851Z,13.70
2022-09-22T15:13:38.321Z,13.60
2022-09-22T15:16:28.339Z,13.70
2022-09-22T15:18:57.812Z,13.60
2022-09-22T15:21:29.308Z,13.60
2022-09-22T15:23:59.796Z,13.50
2022-09-22T15:26:29.992Z,13.40
2022-09-22T15:28:59.096Z,13.30
2022-09-22T15:31:28.464Z,13.30
2022-09-22T15:34:00.226Z,13.20
2022-09-22T15:36:32.086Z,13.10
2022-09-22T15:39:02.058Z,13.10
2022-09-22T15:41:30.056Z,12.90
2022-09-22T15:43:58.621Z,13.00
2022-09-22T15:46:34.120Z,12.80
2022-09-22T15:49:08.785Z,12.70
2022-09-22T15:51:36.971Z,12.70
2022-09-22T15:54:14.365Z,12.60
2022-09-22T15:56:43.452Z,12.60
2022-09-22T15:59:18.061Z,12.60
2022-09-22T16:01:46.313Z,12.60
2022-09-22T16:04:16.021Z,12.60
2022-09-22T16:06:48.616Z,12.50
2022-09-22T16:09:18.106Z,12.30
2022-09-22T16:11:46.381Z,12.40
2022-09-22T16:14:14.598Z,12.30
2022-09-22T16:16:43.108Z,12.20
2022-09-22T16:19:11.544Z,12.20
2022-09-22T16:21:48.945Z,12.10
2022-09-22T16:24:17.064Z,12.00
2022-09-22T16:26:45.183Z,11.90
2022-09-22T16:29:13.361Z,11.80
2022-09-22T16:31:41.594Z,11.80
2022-09-22T16:34:10.789Z,11.70
2022-09-22T16:36:41.792Z,11.60
2022-09-22T16:39:10.057Z,11.60
2022-09-22T16:41:38.296Z,11.50
2022-09-22T16:44:06.655Z,11.40
2022-09-22T16:46:37.972Z,11.30
2022-09-22T16:49:08.959Z,11.30
2022-09-22T16:51:38.802Z,11.30
2022-09-22T16:54:11.692Z,11.20
2022-09-22T16:56:39.850Z,11.20
2022-09-22T16:59:08.858Z,11.10
2022-09-22T17:01:38.427Z,11.00
2022-09-22T17:04:07.891Z,11.00
2022-09-22T17:06:38.346Z,10.80
2022-09-22T17:09:09.127Z,10.70
2022-09-22T17:11:39.310Z,10.60
2022-09-22T17:14:12.339Z,10.50
2022-09-22T17:16:42.517Z,10.50
2022-09-22T17:19:12.262Z,10.50
2022-09-22T17:21:41.129Z,10.40
2022-09-22T17:24:10.656Z,10.30
2022-09-22T17:26:41.290Z,10.30
2022-09-22T17:29:11.012Z,10.20
2022-09-22T17:31:41.658Z,10.20
2022-09-22T17:34:11.273Z,10.20
2022-09-22T17:36:40.722Z,10.10
2022-09-22T17:39:13.676Z,10.00
2022-09-22T17:41:47.123Z,10.00
2022-09-22T17:44:18.359Z,9.80
2022-09-22T17:47:00.496Z,9.70
2022-09-22T17:49:46.030Z,9.70
2022-09-22T17:52:35.214Z,9.60
2022-09-22T17:55:11.768Z,9.50
2022-09-22T17:57:41.988Z,9.40
2022-09-22T18:00:12.555Z,9.40
2022-09-22T18:02:41.021Z,9.30
2022-09-22T18:05:11.659Z,9.30
2022-09-22T18:07:40.708Z,9.20
2022-09-22T18:10:12.393Z,9.20
2022-09-22T18:12:41.300Z,9.20
2022-09-22T18:15:13.092Z,9.10
2022-09-22T18:17:43.165Z,9.10
2022-09-22T18:20:13.133Z,9.00
2022-09-22T18:22:42.620Z,8.90
2022-09-22T18:25:12.759Z,8.90
2022-09-22T18:27:41.096Z,8.80
2022-09-22T18:30:15.345Z,8.70
2022-09-22T18:32:44.088Z,8.70
2022-09-22T18:35:12.971Z,8.60
2022-09-22T18:37:41.274Z,8.50
2022-09-22T18:40:13.006Z,8.50
2022-09-22T18:42:44.829Z,8.40
2022-09-22T18:45:14.404Z,8.40
2022-09-22T18:47:43.826Z,8.40
2022-09-22T18:50:13.417Z,8.30
2022-09-22T18:52:45.973Z,8.20
2022-09-22T18:55:18.441Z,8.20
2022-09-22T18:57:48.180Z,8.10
2022-09-22T19:00:16.869Z,8.20
2022-09-22T19:02:45.077Z,8.00
2022-09-22T19:05:13.321Z,8.00
2022-09-22T19:07:44.084Z,8.00
2022-09-22T19:10:13.940Z,8.00
2022-09-22T19:12:43.418Z,7.90
2022-09-22T19:15:15.482Z,7.80
2022-09-22T19:17:45.074Z,7.80
2022-09-22T19:20:14.912Z,7.70
2022-09-22T19:22:43.204Z,7.70
2022-09-22T19:25:12.170Z,7.60
2022-09-22T19:27:40.834Z,7.60
2022-09-22T19:30:11.979Z,7.60
2022-09-22T19:32:41.258Z,7.50
2022-09-22T19:35:10.529Z,7.50
2022-09-22T19:37:39.620Z,7.50
2022-09-22T19:40:09.571Z,7.40
2022-09-22T19:42:40.266Z,7.40
2022-09-22T19:45:12.062Z,7.30
2022-09-22T19:47:40.712Z,7.30
2022-09-22T19:50:09.673Z,7.30
2022-09-22T19:52:38.435Z,7.20
2022-09-22T19:55:07.609Z,7.10
2022-09-22T19:57:41.412Z,7.20
2022-09-22T20:00:13.783Z,7.10
2022-09-22T20:02:42.152Z,7.10
2022-09-22T20:05:20.765Z,7.10
2022-09-22T20:07:49.112Z,7.10
2022-09-22T20:10:19.103Z,7.10
2022-09-22T20:12:47.667Z,7.10
2022-09-22T20:15:21.013Z,7.20
2022-09-22T20:17:49.424Z,7.20
2022-09-22T20:20:19.809Z,7.20
2022-09-22T20:22:48.729Z,7.30
2022-09-22T20:25:26.533Z,7.30
2022-09-22T20:27:56.189Z,7.30
2022-09-22T20:30:25.862Z,7.30
2022-09-22T20:32:54.005Z,7.30
2022-09-22T20:35:23.187Z,7.40
2022-09-22T20:37:52.388Z,7.30
2022-09-22T20:40:23.225Z,7.40
2022-09-22T20:42:54.242Z,7.40
2022-09-22T20:45:24.854Z,7.40
2022-09-22T20:47:54.963Z,7.40
2022-09-22T20:50:23.152Z,7.40
2022-09-22T20:52:51.501Z,7.30
2022-09-22T20:55:19.589Z,7.40
2022-09-22T20:57:47.661Z,7.30
2022-09-22T21:00:16.340Z,7.30
2022-09-22T21:02:44.627Z,7.20
2022-09-22T21:05:14.129Z,7.20
2022-09-22T21:07:42.181Z,7.10
2022-09-22T21:10:28.016Z,7.10
2022-09-22T21:12:56.569Z,7.00
2022-09-22T21:15:24.682Z,7.00
2022-09-22T21:17:52.940Z,7.00
2022-09-22T21:20:22.671Z,7.00
2022-09-22T21:22:50.766Z,7.00
2022-09-22T21:25:20.269Z,6.90
2022-09-22T21:27:48.407Z,6.80
2022-09-22T21:30:16.607Z,6.90
2022-09-22T21:32:44.679Z,6.80
2022-09-22T21:35:16.716Z,6.80
2022-09-22T21:37:46.383Z,6.80
2022-09-22T21:40:14.540Z,6.80
2022-09-22T21:42:42.685Z,6.70
2022-09-22T21:45:12.419Z,6.70
2022-09-22T21:47:40.496Z,6.60
2022-09-22T21:50:09.590Z,6.60
2022-09-22T21:52:38.625Z,6.60
2022-09-22T21:55:09.278Z,6.60
2022-09-22T21:57:37.427Z,6.50
2022-09-22T22:00:07.597Z,6.50
2022-09-22T22:02:53.896Z,6.50
2022-09-22T22:05:22.014Z,6.50
2022-09-22T22:07:50.082Z,6.50
2022-09-22T22:10:19.520Z,6.50
